| time (UTC) | temp F | wind direction | speed knots | gust knots | rain 1hr in | rain 24hr in | rain mn in | humidity % | barometer mb |
| 20260505190002 | 55 | 339 | 2.6 | 7.8 | 0.00 | 0.00 | 0.00 | 40 | 1010.1 |
| 20260505184502 | 55 | 325 | 4.3 | 10.4 | 0.00 | 0.00 | 0.00 | 37 | 1010.0 |
| 20260505183001 | 55 | 331 | 4.3 | 7.8 | 0.00 | 0.00 | 0.00 | 37 | 1010.0 |
| 20260505181601 | 54 | 282 | 4.3 | 8.7 | 0.00 | 0.00 | 0.00 | 39 | 1009.8 |
| 20260505180104 | 53 | 202 | 3.5 | 8.7 | 0.00 | 0.00 | 0.00 | 40 | 1009.8 |
| 20260505174612 | 53 | 273 | 3.5 | 9.6 | 0.00 | 0.00 | 0.00 | 40 | 1009.6 |
| 20260505173057 | 53 | 269 | 1.7 | 7.0 | 0.00 | 0.00 | 0.00 | 40 | 1009.6 |
| 20260505171557 | 53 | 355 | 3.5 | 8.7 | 0.00 | 0.00 | 0.00 | 38 | 1009.6 |
| 20260505170136 | 52 | 299 | 3.5 | 8.7 | 0.00 | 0.00 | 0.00 | 38 | 1009.6 |
| 20260505164556 | 53 | 292 | 3.5 | 9.6 | 0.00 | 0.00 | 0.00 | 36 | 1009.4 |
| 20260505163055 | 53 | 268 | 2.6 | 7.0 | 0.00 | 0.00 | 0.00 | 38 | 1009.3 |
| 20260505161601 | 53 | 262 | 2.6 | 8.7 | 0.00 | 0.00 | 0.00 | 41 | 1009.2 |
| 20260505153058 | 52 | 292 | 2.6 | 7.8 | 0.00 | 0.00 | 0.00 | 39 | 1009.2 |
| 20260505151552 | 51 | 290 | 2.6 | 6.1 | 0.00 | 0.00 | 0.00 | 44 | 1009.1 |
| 20260505124535 | 46 | 294 | 0.0 | 1.7 | 0.00 | 0.00 | 0.00 | 59 | 1009.3 |
| 20260505123053 | 46 | 347 | 0.0 | 1.7 | 0.00 | 0.00 | 0.00 | 63 | 1009.3 |
| 20260505121534 | 46 | 347 | 0.0 | 1.7 | 0.00 | 0.00 | 0.00 | 66 | 1009.4 |
| 20260505120031 | 45 | 347 | 0.0 | 1.7 | 0.00 | 0.00 | 0.00 | 63 | 1009.7 |
| 20260505114528 | 46 | 347 | 0.0 | 1.7 | 0.00 | 0.00 | 0.00 | 67 | 1009.0 |
| 20260505113034 | 46 | 347 | 0.0 | 2.6 | 0.00 | 0.00 | 0.00 | 64 | 1008.8 |
| 20260505111539 | 46 | 347 | 0.9 | 1.7 | 0.00 | 0.00 | 0.00 | 58 | 1008.4 |
| 20260505101515 | 48 | 347 | 0.9 | 2.6 | 0.00 | 0.00 | 0.00 | 58 | 1008.1 |
| 20260505100014 | 48 | 347 | 0.0 | 1.7 | 0.00 | 0.00 | 0.00 | 56 | 1007.5 |
| 20260505094510 | 48 | 347 | 0.0 | 1.7 | 0.00 | 0.00 | 0.00 | 56 | 1007.0 |
| 20260505093010 | 48 | 347 | 0.9 | 1.7 | 0.00 | 0.00 | 0.00 | 54 | 1006.4 |
| 20260505091506 | 49 | 347 | 0.9 | 2.6 | 0.00 | 0.00 | 0.00 | 53 | 1006.4 |
| 20260505090005 | 49 | 348 | 0.9 | 4.3 | 0.00 | 0.00 | 0.00 | 52 | 1006.9 |
| 20260505084505 | 49 | 336 | 1.7 | 3.5 | 0.00 | 0.00 | 0.00 | 52 | 1006.8 |
| 20260505083118 | 49 | 335 | 0.9 | 2.6 | 0.00 | 0.00 | 0.00 | 52 | 1006.0 |
| 20260505081558 | 49 | 335 | 0.9 | 3.5 | 0.00 | 0.00 | 0.00 | 52 | 1005.9 |
| 20260505080054 | 50 | 335 | 0.9 | 3.5 | 0.00 | 0.00 | 0.00 | 51 | 1004.9 |
| 20260505074551 | 51 | 338 | 1.7 | 4.3 | 0.00 | 0.00 | 0.00 | 52 | 1004.9 |
| 20260505073048 | 51 | 343 | 1.7 | 7.0 | 0.00 | 0.00 | 0.00 | 54 | 1004.8 |
| 20260505071544 | 51 | 286 | 0.9 | 3.5 | 0.00 | 0.00 | 0.00 | 54 | 1004.3 |
| 20260505070049 | 52 | 282 | 0.0 | 1.7 | 0.00 | 0.00 | 0.00 | 54 | 1003.8 |
| 20260505064556 | 52 | 282 | 0.0 | 2.6 | 0.00 | 0.00 | 0.00 | 53 | 1004.1 |
| 20260505063046 | 52 | 282 | 0.9 | 2.6 | 0.00 | 0.00 | 0.00 | 54 | 1004.0 |
| 20260505061541 | 52 | 282 | 0.0 | 0.0 | 0.00 | 0.00 | 0.00 | 58 | 1003.5 |
| 20260505060032 | 54 | 282 | 0.0 | 0.0 | 0.00 | 0.00 | 0.00 | 54 | 1003.5 |
| 20260505054529 | 55 | 282 | 0.0 | 2.6 | 0.00 | 0.00 | 0.00 | 47 | 1003.3 |
| 20260505053025 | 56 | 316 | 0.9 | 4.3 | 0.00 | 0.00 | 0.00 | 45 | 1003.0 |
| 20260505051523 | 56 | 344 | 1.7 | 4.3 | 0.00 | 0.00 | 0.00 | 45 | 1002.8 |
| 20260505041526 | 59 | 360 | 0.9 | 4.3 | 0.00 | 0.00 | 0.00 | 40 | 1002.3 |
| 20260505040016 | 60 | 360 | 1.7 | 7.8 | 0.00 | 0.00 | 0.00 | 40 | 1002.2 |
| 20260505034516 | 60 | 252 | 1.7 | 6.1 | 0.00 | 0.00 | 0.00 | 41 | 1002.0 |
| 20260505033018 | 60 | 282 | 0.9 | 3.5 | 0.00 | 0.00 | 0.00 | 42 | 1001.9 |
| 20260505031515 | 61 | 323 | 0.9 | 2.6 | 0.00 | 0.00 | 0.00 | 39 | 1002.0 |
| 20260505030015 | 62 | 269 | 0.9 | 5.2 | 0.00 | 0.00 | 0.00 | 38 | 1001.7 |
| 20260505024533 | 63 | 314 | 1.7 | 3.5 | 0.00 | 0.00 | 0.00 | 38 | 1001.3 |
| 20260505023013 | 64 | 312 | 1.7 | 7.8 | 0.00 | 0.00 | 0.00 | 38 | 1001.1 |
| 20260505021516 | 65 | 360 | 3.5 | 8.7 | 0.00 | 0.00 | 0.00 | 36 | 1001.2 |
| 20260505020014 | 67 | 261 | 3.5 | 7.8 | 0.00 | 0.00 | 0.00 | 35 | 1000.9 |
| 20260505014512 | 68 | 296 | 2.6 | 8.7 | 0.00 | 0.00 | 0.00 | 36 | 1000.4 |
| 20260505013019 | 69 | 256 | 2.6 | 10.4 | 0.00 | 0.00 | 0.00 | 37 | 999.9 |
| 20260505011511 | 70 | 301 | 1.7 | 9.6 | 0.00 | 0.00 | 0.00 | 37 | 999.1 |
| 20260505010010 | 72 | 316 | 3.5 | 7.8 | 0.00 | 0.00 | 0.00 | 37 | 998.2 |
| 20260505004513 | 73 | 269 | 2.6 | 5.2 | 0.00 | 0.00 | 0.00 | 40 | 997.6 |
| 20260505003013 | 73 | 286 | 1.7 | 6.1 | 0.00 | 0.00 | 0.00 | 43 | 997.3 |
| 20260505001508 | 74 | 277 | 1.7 | 5.2 | 0.00 | 0.00 | 0.00 | 40 | 997.1 |
| 20260505000024 | 75 | 235 | 1.7 | 8.7 | 0.00 | 0.00 | 0.00 | 39 | 996.7 |
| 20260504234507 | 75 | 274 | 2.6 | 7.0 | 0.00 | 0.00 | 0.00 | 39 | 996.8 |
| 20260504233006 | 75 | 254 | 1.7 | 5.2 | 0.00 | 0.00 | 0.00 | 39 | 996.8 |
| 20260504231515 | 76 | 300 | 0.9 | 6.1 | 0.00 | 0.00 | 0.00 | 39 | 996.9 |
| 20260504230004 | 77 | 260 | 3.5 | 6.1 | 0.00 | 0.00 | 0.00 | 37 | 997.0 |
| 20260504224502 | 77 | 252 | 2.6 | 9.6 | 0.00 | 0.00 | 0.00 | 35 | 997.4 |
| 20260504223002 | 78 | 169 | 4.3 | 13.9 | 0.00 | 0.00 | 0.00 | 32 | 997.3 |
| 20260504221609 | 78 | 296 | 4.3 | 10.4 | 0.00 | 0.00 | 0.00 | 33 | 997.3 |
| 20260504220100 | 79 | 234 | 4.3 | 9.6 | 0.00 | 0.00 | 0.00 | 33 | 997.3 |
| 20260504214558 | 79 | 273 | 7.0 | 13.0 | 0.00 | 0.00 | 0.00 | 33 | 997.4 |
| 20260504213056 | 79 | 274 | 6.1 | 13.0 | 0.00 | 0.00 | 0.00 | 31 | 997.6 |
| 20260504211557 | 79 | 272 | 7.0 | 13.9 | 0.00 | 0.00 | 0.00 | 31 | 997.7 |
| 20260504210108 | 79 | 215 | 3.5 | 8.7 | 0.00 | 0.00 | 0.00 | 32 | 997.8 |
| 20260504204600 | 79 | 257 | 4.3 | 10.4 | 0.00 | 0.00 | 0.00 | 32 | 998.1 |
| 20260504203050 | 79 | 226 | 3.5 | 13.0 | 0.00 | 0.00 | 0.00 | 32 | 998.3 |
| 20260504201549 | 78 | 196 | 5.2 | 14.8 | 0.00 | 0.00 | 0.00 | 32 | 998.5 |
| 20260504200044 | 79 | 263 | 7.0 | 13.9 | 0.00 | 0.00 | 0.00 | 32 | 998.5 |
| 20260504194600 | 78 | 290 | 5.2 | 11.3 | 0.00 | 0.00 | 0.00 | 35 | 998.7 |
| 20260504193041 | 78 | 244 | 2.6 | 10.4 | 0.00 | 0.00 | 0.00 | 33 | 998.8 |
| 20260504191546 | 78 | 316 | 6.1 | 11.3 | 0.00 | 0.00 | 0.00 | 30 | 998.9 |
| 20260504190043 | 78 | 273 | 3.5 | 9.6 | 0.00 | 0.00 | 0.00 | 32 | 999.2 |